createdAt,value
2023-03-27T00:01:23.350Z,12.10
2023-03-27T00:03:51.732Z,11.82
2023-03-27T00:06:20.650Z,11.77
2023-03-27T00:08:51.737Z,11.81
2023-03-27T00:11:20.267Z,12.11
2023-03-27T00:13:49.926Z,12.26
2023-03-27T00:16:22.122Z,12.24
2023-03-27T00:18:49.444Z,12.35
2023-03-27T00:21:16.084Z,12.54
2023-03-27T00:23:44.123Z,12.70
2023-03-27T00:26:12.001Z,12.88
2023-03-27T00:28:39.339Z,13.00
2023-03-27T00:31:10.592Z,12.95
2023-03-27T00:33:37.707Z,12.73
2023-03-27T00:36:04.656Z,12.68
2023-03-27T00:38:31.605Z,12.99
2023-03-27T00:40:58.474Z,12.64
2023-03-27T00:43:34.205Z,12.79
2023-03-27T00:46:09.314Z,12.77
2023-03-27T00:48:37.426Z,13.19
2023-03-27T00:51:06.199Z,13.29
2023-03-27T00:53:33.651Z,13.29
2023-03-27T00:56:05.385Z,13.18
2023-03-27T00:58:39.509Z,13.06
2023-03-27T01:01:09.240Z,12.86
2023-03-27T01:03:36.875Z,12.77
2023-03-27T01:06:04.120Z,12.77
2023-03-27T01:08:33.963Z,12.51
2023-03-27T01:11:32.139Z,12.61
2023-03-27T01:14:17.600Z,12.53
2023-03-27T01:16:53.346Z,12.62
2023-03-27T01:19:45.827Z,12.41
2023-03-27T01:22:30.769Z,12.45
2023-03-27T01:25:26.068Z,12.47
2023-03-27T01:28:16.733Z,12.47
2023-03-27T01:31:13.686Z,12.23
2023-03-27T01:33:57.844Z,12.29
2023-03-27T01:36:46.022Z,12.32
2023-03-27T01:39:18.847Z,12.12
2023-03-27T01:42:06.310Z,12.16
2023-03-27T01:44:46.653Z,12.39
2023-03-27T01:47:16.626Z,12.13
2023-03-27T01:49:53.084Z,12.40
2023-03-27T01:52:26.418Z,12.41
2023-03-27T01:55:03.839Z,12.11
2023-03-27T01:58:14.012Z,11.90
2023-03-27T02:00:51.856Z,11.20
2023-03-27T02:03:27.473Z,11.72
2023-03-27T02:06:11.525Z,11.62
2023-03-27T02:08:57.735Z,11.84
2023-03-27T02:11:29.909Z,11.70
2023-03-27T02:14:04.937Z,11.58
2023-03-27T02:16:35.783Z,11.37
2023-03-27T02:19:14.519Z,11.14
2023-03-27T02:21:41.770Z,11.28
2023-03-27T02:24:09.116Z,10.87
2023-03-27T02:26:36.526Z,11.17
2023-03-27T02:29:26.430Z,10.94
2023-03-27T02:32:12.965Z,10.77
2023-03-27T02:35:01.271Z,11.04
2023-03-27T02:37:53.169Z,10.77
2023-03-27T02:41:06.113Z,10.47
2023-03-27T02:43:49.550Z,10.57
2023-03-27T02:46:28.711Z,10.85
2023-03-27T02:48:59.491Z,10.56
2023-03-27T02:51:33.456Z,10.53
2023-03-27T02:54:03.216Z,10.70
2023-03-27T02:56:39.449Z,10.71
2023-03-27T02:59:13.056Z,10.65
2023-03-27T03:01:42.208Z,10.76
2023-03-27T03:04:28.525Z,10.58
2023-03-27T03:06:59.185Z,10.56
2023-03-27T03:09:25.977Z,10.36
2023-03-27T03:11:54.361Z,10.23
2023-03-27T03:14:27.006Z,10.57
2023-03-27T03:16:53.759Z,10.59
2023-03-27T03:19:23.893Z,10.70
2023-03-27T03:21:50.830Z,10.84
2023-03-27T03:24:18.928Z,10.26
2023-03-27T03:26:49.937Z,10.21
2023-03-27T03:29:21.721Z,10.56
2023-03-27T03:32:01.863Z,10.63
2023-03-27T03:34:30.312Z,10.75
2023-03-27T03:36:57.013Z,10.54
2023-03-27T03:39:29.882Z,10.64
2023-03-27T03:41:56.507Z,11.03
2023-03-27T03:44:23.226Z,11.28
2023-03-27T03:46:49.965Z,11.09
2023-03-27T03:49:21.445Z,11.05
2023-03-27T03:51:48.356Z,11.28
2023-03-27T03:54:31.535Z,11.39
2023-03-27T03:56:58.533Z,11.17
2023-03-27T03:59:25.678Z,11.04
2023-03-27T04:02:28.417Z,11.06
2023-03-27T04:05:00.539Z,11.12
2023-03-27T04:07:36.314Z,11.43
2023-03-27T04:10:39.719Z,11.20
2023-03-27T04:13:14.176Z,11.11
2023-03-27T04:15:52.864Z,11.05
2023-03-27T04:18:35.370Z,10.93
2023-03-27T04:21:14.130Z,10.72
2023-03-27T04:23:48.128Z,10.93
2023-03-27T04:26:26.286Z,11.26
2023-03-27T04:29:16.772Z,10.90
2023-03-27T04:32:12.916Z,10.79
2023-03-27T04:34:40.631Z,10.34
2023-03-27T04:37:25.655Z,10.75
2023-03-27T04:40:05.342Z,10.80
2023-03-27T04:42:32.090Z,10.69
2023-03-27T04:44:58.638Z,10.88
2023-03-27T04:47:25.343Z,10.97
2023-03-27T04:50:00.190Z,11.13
2023-03-27T04:52:29.755Z,10.80
2023-03-27T04:54:58.922Z,11.50
2023-03-27T04:57:31.330Z,11.00
2023-03-27T05:00:02.159Z,11.70
2023-03-27T05:02:56.416Z,11.40
2023-03-27T05:05:51.618Z,11.52
2023-03-27T05:08:19.126Z,11.50
2023-03-27T05:10:46.633Z,11.72
2023-03-27T05:13:13.591Z,11.48
2023-03-27T05:15:40.626Z,11.48
2023-03-27T05:18:10.030Z,11.56
2023-03-27T05:20:37.129Z,11.43
2023-03-27T05:23:08.284Z,11.72
2023-03-27T05:25:34.847Z,11.52
2023-03-27T05:28:04.511Z,11.54
2023-03-27T05:30:34.691Z,11.40
2023-03-27T05:33:20.734Z,11.09
2023-03-27T05:35:51.610Z,11.24
2023-03-27T05:38:19.354Z,10.70
2023-03-27T05:40:54.946Z,10.55
2023-03-27T05:43:23.047Z,11.12
2023-03-27T05:45:49.880Z,11.30
2023-03-27T05:48:17.415Z,11.65
2023-03-27T05:50:44.912Z,11.97
2023-03-27T05:53:28.033Z,12.10
2023-03-27T05:56:18.297Z,12.07
2023-03-27T05:58:53.311Z,11.38
2023-03-27T06:01:20.867Z,10.14
2023-03-27T06:03:49.407Z,10.26
2023-03-27T06:06:21.552Z,9.66
2023-03-27T06:08:48.100Z,9.90
2023-03-27T06:11:17.958Z,10.13
2023-03-27T06:13:45.859Z,10.30
2023-03-27T06:16:20.738Z,10.60
2023-03-27T06:19:16.967Z,10.79
2023-03-27T06:21:49.108Z,10.26
2023-03-27T06:24:16.767Z,10.67
2023-03-27T06:26:44.021Z,10.83
2023-03-27T06:29:11.945Z,10.54
2023-03-27T06:31:45.438Z,10.42
2023-03-27T06:34:17.956Z,10.32
2023-03-27T06:37:03.743Z,10.23
2023-03-27T06:39:37.327Z,10.49
2023-03-27T06:42:04.664Z,10.31
2023-03-27T06:44:34.774Z,10.16
2023-03-27T06:47:11.498Z,10.64
2023-03-27T06:50:04.181Z,10.79
2023-03-27T06:52:32.794Z,10.65
2023-03-27T06:55:14.821Z,10.50
2023-03-27T06:57:52.700Z,10.81
2023-03-27T07:00:25.849Z,10.88
2023-03-27T07:03:16.013Z,11.22
2023-03-27T07:06:16.430Z,11.11
2023-03-27T07:08:57.871Z,11.04
2023-03-27T07:11:27.016Z,11.22
2023-03-27T07:13:56.820Z,11.23
2023-03-27T07:16:30.118Z,11.59
2023-03-27T07:18:58.899Z,11.36
2023-03-27T07:21:28.513Z,11.02
2023-03-27T07:23:58.794Z,10.73
2023-03-27T07:26:34.280Z,11.02
2023-03-27T07:29:04.016Z,10.96
2023-03-27T07:31:45.142Z,11.09
2023-03-27T07:34:18.172Z,11.20
2023-03-27T07:37:07.466Z,11.55
2023-03-27T07:39:36.381Z,11.73
2023-03-27T07:42:03.787Z,11.78
2023-03-27T07:44:42.032Z,11.66
2023-03-27T07:47:09.239Z,11.07
2023-03-27T07:49:39.934Z,11.47
2023-03-27T07:52:21.715Z,12.24
2023-03-27T07:54:57.041Z,12.25
2023-03-27T07:57:29.967Z,11.73
2023-03-27T08:00:04.143Z,11.84
2023-03-27T08:02:44.169Z,11.70
2023-03-27T08:05:11.567Z,12.03
2023-03-27T08:07:40.915Z,12.83
2023-03-27T08:10:09.378Z,13.13
2023-03-27T08:12:48.580Z,13.00
2023-03-27T08:15:15.815Z,13.05
2023-03-27T08:17:42.777Z,13.11
2023-03-27T08:20:15.284Z,12.46
2023-03-27T08:22:47.122Z,12.14
2023-03-27T08:25:36.458Z,12.01
2023-03-27T08:28:07.230Z,12.52
2023-03-27T08:30:35.258Z,12.97
2023-03-27T08:33:03.826Z,12.44
2023-03-27T08:35:31.710Z,12.24
2023-03-27T08:37:59.187Z,12.75
2023-03-27T08:40:29.705Z,12.47
2023-03-27T08:43:22.456Z,12.82
2023-03-27T08:45:56.513Z,13.72
2023-03-27T08:48:42.273Z,12.59
2023-03-27T08:51:16.941Z,12.51
2023-03-27T08:54:00.633Z,12.43
2023-03-27T08:56:31.088Z,11.94
2023-03-27T08:58:58.054Z,12.28
2023-03-27T09:01:35.490Z,12.63
2023-03-27T09:04:18.361Z,13.26
2023-03-27T09:07:05.907Z,13.08
2023-03-27T09:10:02.499Z,13.12
2023-03-27T09:12:43.984Z,12.34
2023-03-27T09:15:26.232Z,12.02
2023-03-27T09:18:46.481Z,10.77
2023-03-27T09:21:25.233Z,10.88
2023-03-27T09:23:55.274Z,10.92
2023-03-27T09:26:41.271Z,11.25
2023-03-27T09:29:34.694Z,11.34
2023-03-27T09:32:19.789Z,11.83
2023-03-27T09:34:48.123Z,12.06
2023-03-27T09:37:17.785Z,12.17
2023-03-27T09:39:50.541Z,12.52
2023-03-27T09:42:32.665Z,12.19
2023-03-27T09:45:04.083Z,12.54
2023-03-27T09:47:43.906Z,13.19
2023-03-27T09:50:28.591Z,13.61
2023-03-27T09:53:14.238Z,12.07
2023-03-27T09:56:03.001Z,10.77
2023-03-27T09:58:40.870Z,10.54
2023-03-27T10:01:30.794Z,10.92
2023-03-27T10:04:17.891Z,11.31
2023-03-27T10:07:01.944Z,11.14
2023-03-27T10:10:19.831Z,11.73
2023-03-27T10:13:16.554Z,11.53
2023-03-27T10:15:47.580Z,11.69
2023-03-27T10:18:30.675Z,11.52
2023-03-27T10:21:17.199Z,12.25
2023-03-27T10:23:49.798Z,12.12
2023-03-27T10:26:37.440Z,12.45
2023-03-27T10:29:27.459Z,12.53
2023-03-27T10:31:56.827Z,12.82
2023-03-27T10:34:51.596Z,13.95
2023-03-27T10:37:40.700Z,13.44
2023-03-27T10:40:39.459Z,12.53
2023-03-27T10:43:33.702Z,12.16
2023-03-27T10:46:07.143Z,12.88
2023-03-27T10:48:50.654Z,12.50
2023-03-27T10:51:51.434Z,11.95
2023-03-27T10:54:36.988Z,12.38
2023-03-27T10:57:19.597Z,12.34
2023-03-27T10:59:50.765Z,12.04
2023-03-27T11:03:16.595Z,12.22
2023-03-27T11:05:48.642Z,12.42
2023-03-27T11:08:48.044Z,12.66
2023-03-27T11:11:25.404Z,12.64
2023-03-27T11:13:56.806Z,13.08
2023-03-27T11:16:29.306Z,13.58
2023-03-27T11:19:41.232Z,13.65
2023-03-27T11:22:34.606Z,13.54
2023-03-27T11:25:19.820Z,13.34
2023-03-27T11:27:58.889Z,13.47
2023-03-27T11:30:36.256Z,13.44
2023-03-27T11:33:25.673Z,12.91
2023-03-27T11:36:29.649Z,13.49
2023-03-27T11:39:28.978Z,14.38
2023-03-27T11:41:59.074Z,14.05
2023-03-27T11:44:30.403Z,13.73
2023-03-27T11:47:12.080Z,14.05
2023-03-27T11:49:50.639Z,13.64
2023-03-27T11:52:40.494Z,14.38
2023-03-27T11:55:31.255Z,14.39
2023-03-27T11:58:34.756Z,14.09
2023-03-27T12:01:21.652Z,13.70
2023-03-27T12:04:07.113Z,14.22
2023-03-27T12:07:35.253Z,13.84
2023-03-27T12:10:27.432Z,13.48
2023-03-27T12:13:41.630Z,14.10
2023-03-27T12:16:41.477Z,15.09
2023-03-27T12:19:38.494Z,14.39
2023-03-27T12:22:45.106Z,15.10
2023-03-27T12:25:22.651Z,15.61
2023-03-27T12:28:32.392Z,15.71
2023-03-27T12:31:27.583Z,14.18
2023-03-27T12:34:02.412Z,13.65
2023-03-27T12:36:38.592Z,14.01
2023-03-27T12:39:18.693Z,14.09
2023-03-27T12:41:46.309Z,14.69
2023-03-27T12:44:28.469Z,14.27
2023-03-27T12:47:08.912Z,13.79
2023-03-27T12:49:47.490Z,13.92
2023-03-27T12:52:20.889Z,13.51
2023-03-27T12:55:26.729Z,14.20
2023-03-27T12:58:32.347Z,14.03
2023-03-27T13:01:49.126Z,14.39
2023-03-27T13:04:27.848Z,14.89
2023-03-27T13:07:22.705Z,14.65
2023-03-27T13:10:14.329Z,14.22
2023-03-27T13:12:47.870Z,13.86
2023-03-27T13:15:37.655Z,13.80
2023-03-27T13:18:29.550Z,14.26
2023-03-27T13:21:38.322Z,13.47
2023-03-27T13:24:32.074Z,13.39
2023-03-27T13:27:12.109Z,13.80
2023-03-27T13:29:40.281Z,13.60
2023-03-27T13:32:32.228Z,14.24
2023-03-27T13:35:21.081Z,14.81
2023-03-27T13:37:50.846Z,14.83
2023-03-27T13:40:34.734Z,14.50
2023-03-27T13:43:21.745Z,14.83
2023-03-27T13:46:01.604Z,15.30
2023-03-27T13:49:05.073Z,15.54
2023-03-27T13:51:59.544Z,15.30
2023-03-27T13:54:57.802Z,14.56
2023-03-27T13:57:57.849Z,14.62
2023-03-27T14:00:42.786Z,15.31
2023-03-27T14:03:32.578Z,14.78
2023-03-27T14:06:20.716Z,14.25
2023-03-27T14:09:06.546Z,14.95
2023-03-27T14:12:10.434Z,15.24
2023-03-27T14:15:23.187Z,14.68
2023-03-27T14:18:41.951Z,13.73
2023-03-27T14:21:35.485Z,13.54
2023-03-27T14:24:15.390Z,13.87
2023-03-27T14:26:48.736Z,13.91
2023-03-27T14:29:21.106Z,14.05
2023-03-27T14:31:50.974Z,13.99
2023-03-27T14:35:02.635Z,13.81
2023-03-27T14:37:41.988Z,13.50
2023-03-27T14:40:41.568Z,13.47
2023-03-27T14:43:12.277Z,13.47
2023-03-27T14:45:41.177Z,13.52
2023-03-27T14:48:21.441Z,13.75
2023-03-27T14:50:54.071Z,13.84
2023-03-27T14:53:26.766Z,13.51
2023-03-27T14:56:37.167Z,13.15
2023-03-27T14:59:14.334Z,13.38
2023-03-27T15:01:49.176Z,13.84
2023-03-27T15:04:17.336Z,13.77
2023-03-27T15:06:50.153Z,13.42
2023-03-27T15:09:43.684Z,13.69
2023-03-27T15:12:47.711Z,13.80
2023-03-27T15:15:43.029Z,13.75
2023-03-27T15:18:15.811Z,13.74
2023-03-27T15:20:43.774Z,14.19
2023-03-27T15:23:22.518Z,14.16
2023-03-27T15:26:08.602Z,13.85
2023-03-27T15:28:53.360Z,13.80
2023-03-27T15:31:20.925Z,14.29
2023-03-27T15:34:18.596Z,14.21
2023-03-27T15:36:50.383Z,14.28
2023-03-27T15:39:22.122Z,13.57
2023-03-27T15:41:55.804Z,13.58
2023-03-27T15:44:25.903Z,13.17
2023-03-27T15:46:57.910Z,13.23
2023-03-27T15:49:38.773Z,12.90
2023-03-27T15:52:46.979Z,12.84
2023-03-27T15:55:29.167Z,13.22
2023-03-27T15:57:56.062Z,13.50
2023-03-27T16:00:22.992Z,13.97
2023-03-27T16:02:50.104Z,13.50
2023-03-27T16:05:20.420Z,13.02
2023-03-27T16:07:48.666Z,12.81
2023-03-27T16:10:31.902Z,12.71
2023-03-27T16:13:03.273Z,12.74
2023-03-27T16:15:47.973Z,13.24
2023-03-27T16:18:19.273Z,13.33
2023-03-27T16:20:46.134Z,13.46
2023-03-27T16:23:13.098Z,13.15
2023-03-27T16:25:41.243Z,12.78
2023-03-27T16:28:10.952Z,12.59
2023-03-27T16:30:41.127Z,12.88
2023-03-27T16:33:21.639Z,13.06
2023-03-27T16:35:49.561Z,12.69
2023-03-27T16:38:17.463Z,13.06
2023-03-27T16:40:45.677Z,12.66
2023-03-27T16:43:12.459Z,13.17
2023-03-27T16:45:39.877Z,12.45
2023-03-27T16:48:08.683Z,12.55
2023-03-27T16:50:35.633Z,12.85
2023-03-27T16:53:03.613Z,12.75
2023-03-27T16:55:30.541Z,12.30
2023-03-27T16:57:57.349Z,12.49
2023-03-27T17:00:24.452Z,12.85
2023-03-27T17:02:51.551Z,12.40
2023-03-27T17:05:19.671Z,12.75
2023-03-27T17:07:46.926Z,12.29
2023-03-27T17:10:17.670Z,12.56
2023-03-27T17:12:44.826Z,12.32
2023-03-27T17:15:11.772Z,12.36
2023-03-27T17:17:38.515Z,12.29
2023-03-27T17:20:07.766Z,12.56
2023-03-27T17:22:34.975Z,12.56
2023-03-27T17:25:04.037Z,12.63
2023-03-27T17:27:31.120Z,12.96
2023-03-27T17:29:58.581Z,12.58
2023-03-27T17:32:26.801Z,12.64
2023-03-27T17:34:54.293Z,12.70
2023-03-27T17:37:21.430Z,12.20
2023-03-27T17:39:48.884Z,12.50
2023-03-27T17:42:15.947Z,12.38
2023-03-27T17:44:44.416Z,12.18
2023-03-27T17:47:12.836Z,11.90
2023-03-27T17:49:40.844Z,12.27
2023-03-27T17:52:11.203Z,12.14
2023-03-27T17:54:38.570Z,12.21
2023-03-27T17:57:05.833Z,12.33
2023-03-27T17:59:32.562Z,12.15
2023-03-27T18:01:59.360Z,12.22
2023-03-27T18:04:27.012Z,11.93
2023-03-27T18:06:54.099Z,11.96
2023-03-27T18:09:21.446Z,12.29
2023-03-27T18:11:48.345Z,12.15
2023-03-27T18:14:15.411Z,12.27
2023-03-27T18:16:42.454Z,12.63
2023-03-27T18:19:09.785Z,12.19
2023-03-27T18:21:36.427Z,12.38
2023-03-27T18:24:03.676Z,12.39
2023-03-27T18:26:30.533Z,12.10
2023-03-27T18:28:57.969Z,11.89
2023-03-27T18:31:25.155Z,11.72
2023-03-27T18:33:53.078Z,11.77
2023-03-27T18:36:20.588Z,11.62
2023-03-27T18:38:49.987Z,11.58
2023-03-27T18:41:23.218Z,11.67
2023-03-27T18:43:50.160Z,11.77
2023-03-27T18:46:17.452Z,11.40
2023-03-27T18:48:46.082Z,11.38
2023-03-27T18:51:13.224Z,11.26
2023-03-27T18:53:40.525Z,11.31
2023-03-27T18:56:08.167Z,11.40
2023-03-27T18:58:36.064Z,11.21
2023-03-27T19:01:09.290Z,11.17
2023-03-27T19:03:37.412Z,11.50
2023-03-27T19:06:07.476Z,11.15
2023-03-27T19:08:37.581Z,11.39
2023-03-27T19:11:09.313Z,11.26
2023-03-27T19:13:55.686Z,11.38
2023-03-27T19:16:29.013Z,11.33
2023-03-27T19:19:19.193Z,11.27
2023-03-27T19:22:05.992Z,11.40
2023-03-27T19:24:42.222Z,11.12
2023-03-27T19:27:24.163Z,11.22
2023-03-27T19:29:52.991Z,11.25
2023-03-27T19:32:20.568Z,11.00
2023-03-27T19:34:47.531Z,11.30
2023-03-27T19:37:14.811Z,11.19
2023-03-27T19:39:41.573Z,11.06
2023-03-27T19:42:08.361Z,10.99
2023-03-27T19:44:38.496Z,11.11
2023-03-27T19:47:07.720Z,11.22
2023-03-27T19:49:34.826Z,11.25
2023-03-27T19:52:24.542Z,11.29
2023-03-27T19:54:51.199Z,11.39
2023-03-27T19:57:17.806Z,11.34
2023-03-27T19:59:44.585Z,11.58
2023-03-27T20:02:12.489Z,11.37
2023-03-27T20:04:39.504Z,11.52
2023-03-27T20:07:10.113Z,11.43
2023-03-27T20:09:37.237Z,11.41
2023-03-27T20:12:04.880Z,11.66
2023-03-27T20:14:31.539Z,11.38
2023-03-27T20:16:58.309Z,11.32
2023-03-27T20:19:30.432Z,11.21
2023-03-27T20:21:59.784Z,11.54
2023-03-27T20:24:28.932Z,11.66
2023-03-27T20:26:58.938Z,11.54
2023-03-27T20:29:27.626Z,11.41
2023-03-27T20:31:54.586Z,11.08
2023-03-27T20:34:22.970Z,11.40
2023-03-27T20:36:53.481Z,11.43
2023-03-27T20:39:44.708Z,11.38
2023-03-27T20:42:17.447Z,11.34
2023-03-27T20:44:45.801Z,11.41
2023-03-27T20:47:15.397Z,11.14
2023-03-27T20:49:56.921Z,11.13
2023-03-27T20:52:23.888Z,11.00
2023-03-27T20:54:51.043Z,11.14
2023-03-27T20:57:21.730Z,11.20
2023-03-27T20:59:51.127Z,11.17
2023-03-27T21:02:21.389Z,11.03
2023-03-27T21:04:56.327Z,11.06
2023-03-27T21:07:29.385Z,10.94
2023-03-27T21:09:56.167Z,11.03
2023-03-27T21:12:25.715Z,10.95
2023-03-27T21:14:57.181Z,10.78
2023-03-27T21:17:28.077Z,10.90
2023-03-27T21:20:05.847Z,10.84
2023-03-27T21:22:35.555Z,10.82
2023-03-27T21:25:08.155Z,10.72
2023-03-27T21:27:36.699Z,10.82
2023-03-27T21:30:11.421Z,10.91
2023-03-27T21:32:47.974Z,10.65
2023-03-27T21:35:28.297Z,10.65
2023-03-27T21:37:55.038Z,10.46
2023-03-27T21:40:22.557Z,10.61
2023-03-27T21:42:50.365Z,10.60
2023-03-27T21:45:19.254Z,10.76
2023-03-27T21:47:53.207Z,10.77
2023-03-27T21:50:21.644Z,10.65
2023-03-27T21:52:48.527Z,10.57
2023-03-27T21:55:16.054Z,10.43
2023-03-27T21:57:44.398Z,10.67
2023-03-27T22:00:18.119Z,10.50
2023-03-27T22:02:48.299Z,10.60
2023-03-27T22:05:17.597Z,10.72
2023-03-27T22:07:45.438Z,10.36
2023-03-27T22:10:23.604Z,10.54
2023-03-27T22:12:50.378Z,10.62
2023-03-27T22:15:17.452Z,10.49
2023-03-27T22:17:44.666Z,10.64
2023-03-27T22:20:11.370Z,10.47
2023-03-27T22:22:38.155Z,10.55
2023-03-27T22:25:05.345Z,10.53
2023-03-27T22:27:32.328Z,10.40
2023-03-27T22:29:58.979Z,10.57
2023-03-27T22:32:26.015Z,10.40
2023-03-27T22:34:53.787Z,10.57
2023-03-27T22:37:20.904Z,10.57
2023-03-27T22:39:47.878Z,10.40
2023-03-27T22:42:14.661Z,10.24
2023-03-27T22:44:41.583Z,10.22
2023-03-27T22:47:08.429Z,10.20
2023-03-27T22:49:36.257Z,10.34
2023-03-27T22:52:04.568Z,9.96
2023-03-27T22:54:31.222Z,10.32
2023-03-27T22:56:59.019Z,10.16
2023-03-27T22:59:25.685Z,10.32
2023-03-27T23:01:52.453Z,10.26
2023-03-27T23:04:19.152Z,10.10
2023-03-27T23:06:48.348Z,9.95
2023-03-27T23:09:14.909Z,9.83
2023-03-27T23:11:43.716Z,9.80
2023-03-27T23:14:11.140Z,9.65
2023-03-27T23:16:37.820Z,9.85
2023-03-27T23:19:04.926Z,9.78
2023-03-27T23:21:31.930Z,9.74
2023-03-27T23:23:58.617Z,9.70
2023-03-27T23:26:25.401Z,9.82
2023-03-27T23:28:52.056Z,9.66
2023-03-27T23:31:20.126Z,9.70
2023-03-27T23:33:48.416Z,9.58
2023-03-27T23:36:20.433Z,9.45
2023-03-27T23:38:47.876Z,9.34
2023-03-27T23:41:16.370Z,9.46
2023-03-27T23:43:43.094Z,9.20
2023-03-27T23:46:10.966Z,9.52
2023-03-27T23:48:39.410Z,9.49
2023-03-27T23:51:07.230Z,9.45
2023-03-27T23:53:35.514Z,9.50
2023-03-27T23:56:03.599Z,9.54
2023-03-27T23:58:32.915Z,9.73
